Time;durP1;ratioP1;P1;durP2;ratioP2;P2;SDS_P1;SDS_P2;PMS_P1;PMS_P2;Temp;Humidity;BMP_temperature;BMP_pressure;BME280_temperature;BME280_humidity;BME280_pressure;Samples;Min_cycle;Max_cycle;Signal;HPM_P1;HPM_P2
2022/06/25 00:02:02;;;;;;;147.37;139.50;;;16.40;99.90;;;;;;5035011;28;20202;-79
2022/06/25 00:07:15;;;;;;;123.97;117.33;;;16.40;99.90;;;;;;5047535;28;20207;-80
2022/06/25 00:09:41;;;;;;;94.93;90.07;;;16.40;99.90;;;;;;5045003;28;20191;-79
2022/06/25 00:14:52;;;;;;;40.63;38.33;;;16.30;99.90;;;;;;5039902;28;20554;-79
2022/06/25 00:17:20;;;;;;;44.73;42.27;;;16.30;99.90;;;;;;5037526;28;20194;-79
2022/06/25 00:19:46;;;;;;;41.77;39.47;;;16.20;99.90;;;;;;5036434;28;20183;-79
2022/06/25 00:22:12;;;;;;;51.77;48.93;;;16.20;99.90;;;;;;5040288;28;20182;-79
2022/06/25 00:24:38;;;;;;;30.53;28.63;;;16.10;99.90;;;;;;5034268;28;20266;-79
2022/06/25 00:27:04;;;;;;;8.57;7.87;;;16.10;99.90;;;;;;5034908;28;20297;-79
2022/06/25 00:29:30;;;;;;;7.63;7.13;;;16.10;99.90;;;;;;5035401;28;20183;-80
2022/06/25 00:31:56;;;;;;;10.73;7.20;;;16.10;99.90;;;;;;5035691;28;20211;-79
2022/06/25 00:34:22;;;;;;;7.47;5.50;;;16.00;99.90;;;;;;5037964;28;20655;-79
2022/06/25 00:36:47;;;;;;;7.13;5.73;;;16.00;99.90;;;;;;5036863;28;20191;-79
2022/06/25 00:39:13;;;;;;;8.97;5.50;;;15.90;99.90;;;;;;5035942;28;20190;-79
2022/06/25 00:41:39;;;;;;;7.37;6.83;;;15.90;99.90;;;;;;5034882;28;20175;-80
2022/06/25 00:44:09;;;;;;;8.27;7.53;;;15.90;99.90;;;;;;5041728;28;20555;-79
2022/06/25 00:46:35;;;;;;;8.87;8.07;;;15.90;99.90;;;;;;5039720;28;20761;-79
2022/06/25 00:49:02;;;;;;;7.10;6.50;;;15.90;99.90;;;;;;5033391;28;20663;-80
2022/06/25 00:51:31;;;;;;;6.97;6.13;;;15.80;99.90;;;;;;5034012;28;20309;-79
2022/06/25 00:54:02;;;;;;;23.33;6.93;;;15.80;99.90;;;;;;5034961;28;20190;-79
2022/06/25 00:56:35;;;;;;;5.93;5.40;;;15.80;99.90;;;;;;5036902;28;20234;-79
2022/06/25 00:59:04;;;;;;;7.80;6.40;;;15.80;99.90;;;;;;5034301;28;20245;-80
2022/06/25 01:01:34;;;;;;;7.10;6.70;;;15.70;99.90;;;;;;5034808;28;20183;-79
2022/06/25 01:04:00;;;;;;;7.23;5.50;;;15.70;99.90;;;;;;5034423;28;20186;-79
2022/06/25 01:06:28;;;;;;;10.07;6.67;;;15.70;99.90;;;;;;5036312;28;20230;-79
2022/06/25 01:08:57;;;;;;;5.83;5.07;;;15.70;99.90;;;;;;5038659;28;20378;-80
2022/06/25 01:11:24;;;;;;;8.60;4.97;;;15.70;99.90;;;;;;5039991;28;20211;-80
2022/06/25 01:13:50;;;;;;;5.80;5.00;;;15.70;99.90;;;;;;5051465;28;20190;-80
2022/06/25 01:16:15;;;;;;;14.80;5.43;;;15.70;99.90;;;;;;5033377;28;20572;-78
2022/06/25 01:18:41;;;;;;;12.87;8.43;;;15.60;99.90;;;;;;5034328;28;20379;-79
2022/06/25 01:21:07;;;;;;;9.70;8.90;;;15.70;99.90;;;;;;5034768;28;20186;-79
2022/06/25 01:23:33;;;;;;;13.73;13.10;;;15.70;99.90;;;;;;5035599;28;20189;-79
2022/06/25 01:26:00;;;;;;;15.57;14.43;;;15.70;99.90;;;;;;5035029;28;20203;-79
2022/06/25 01:28:26;;;;;;;13.93;13.03;;;15.70;99.90;;;;;;5032545;28;20240;-80
2022/06/25 01:30:52;;;;;;;18.40;17.50;;;15.70;99.90;;;;;;5034329;28;20178;-78
2022/06/25 01:33:18;;;;;;;14.30;13.27;;;15.70;99.90;;;;;;5035045;28;20613;-78
2022/06/25 01:35:43;;;;;;;14.53;13.83;;;15.60;99.90;;;;;;5033810;28;20211;-79
2022/06/25 01:38:09;;;;;;;31.90;30.30;;;15.70;99.90;;;;;;5044272;28;20206;-79
2022/06/25 01:40:35;;;;;;;12.07;11.23;;;15.80;99.90;;;;;;5046579;28;20155;-79
2022/06/25 01:43:01;;;;;;;4.77;4.53;;;15.80;99.90;;;;;;5043380;28;20202;-79
2022/06/25 01:45:30;;;;;;;5.83;5.53;;;15.80;99.90;;;;;;5036515;28;20252;-79
2022/06/25 01:47:57;;;;;;;12.03;11.37;;;15.80;99.90;;;;;;5034519;28;20179;-79
2022/06/25 01:50:23;;;;;;;38.47;36.63;;;15.80;99.90;;;;;;5035361;28;20186;-79
2022/06/25 01:52:49;;;;;;;43.00;40.83;;;15.70;99.90;;;;;;5034982;28;20687;-78
2022/06/25 01:55:16;;;;;;;31.97;30.17;;;15.70;99.90;;;;;;5033806;28;20273;-79
2022/06/25 01:57:42;;;;;;;57.53;54.37;;;15.60;99.90;;;;;;5034540;28;20525;-78
2022/06/25 02:00:12;;;;;;;128.17;121.80;;;15.60;99.90;;;;;;5033732;28;20175;-79
2022/06/25 02:02:38;;;;;;;140.93;133.90;;;15.60;99.90;;;;;;5034516;28;20187;-78
2022/06/25 02:05:05;;;;;;;118.37;112.60;;;15.50;99.90;;;;;;5034813;28;20187;-79
2022/06/25 02:07:31;;;;;;;129.37;122.93;;;15.50;99.90;;;;;;5034423;28;20180;-78
2022/06/25 02:09:57;;;;;;;121.97;116.00;;;15.40;99.90;;;;;;5034841;28;20187;-79
2022/06/25 02:12:23;;;;;;;124.03;117.83;;;15.40;99.90;;;;;;5034894;28;20356;-79
2022/06/25 02:14:49;;;;;;;144.33;137.17;;;15.40;99.90;;;;;;5034241;28;20179;-78
2022/06/25 02:17:15;;;;;;;135.57;128.67;;;15.40;99.90;;;;;;5034614;28;20619;-79
2022/06/25 02:19:41;;;;;;;147.73;140.27;;;15.30;99.90;;;;;;5035491;28;20209;-79
2022/06/25 02:22:08;;;;;;;139.20;132.00;;;15.30;99.90;;;;;;5034103;28;20210;-80
2022/06/25 02:24:34;;;;;;;111.53;105.47;;;15.30;99.90;;;;;;5035810;28;20554;-79
2022/06/25 02:27:00;;;;;;;87.60;83.20;;;15.30;99.90;;;;;;5036904;28;20252;-80
2022/06/25 02:29:25;;;;;;;103.00;97.60;;;15.30;99.90;;;;;;5038154;28;20183;-80
2022/06/25 02:31:51;;;;;;;85.50;81.17;;;15.20;99.90;;;;;;5037975;28;20269;-79
2022/06/25 02:34:17;;;;;;;117.80;112.00;;;15.30;99.90;;;;;;5037988;28;20655;-79
2022/06/25 02:36:43;;;;;;;112.27;106.67;;;15.20;99.90;;;;;;5037908;28;20297;-80
2022/06/25 02:39:08;;;;;;;118.53;112.63;;;15.20;99.90;;;;;;5043081;28;20191;-79
2022/06/25 02:41:34;;;;;;;107.83;102.40;;;15.30;99.90;;;;;;5058935;28;20190;-79
2022/06/25 02:44:00;;;;;;;115.17;109.57;;;15.30;99.90;;;;;;5036653;28;20194;-79
2022/06/25 02:46:26;;;;;;;104.93;99.43;;;15.20;99.90;;;;;;5050340;28;20227;-79
2022/06/25 02:48:52;;;;;;;117.60;111.77;;;15.20;99.90;;;;;;5049469;28;20205;-79
2022/06/25 02:51:18;;;;;;;112.67;106.30;;;15.10;99.90;;;;;;5046135;28;20209;-79
2022/06/25 02:53:44;;;;;;;103.07;97.93;;;15.10;99.90;;;;;;5046174;28;20563;-79
2022/06/25 02:58:54;;;;;;;82.53;78.30;;;15.10;99.90;;;;;;5046523;28;20191;-79
2022/06/25 03:01:21;;;;;;;47.67;45.37;;;15.10;99.90;;;;;;5035943;28;20238;-79
2022/06/25 03:03:46;;;;;;;61.00;57.67;;;15.10;99.90;;;;;;5036442;28;20201;-79
2022/06/25 03:06:12;;;;;;;49.07;46.10;;;15.00;99.90;;;;;;5036029;28;20207;-79
2022/06/25 03:08:38;;;;;;;19.33;18.30;;;15.00;99.90;;;;;;5056057;28;20206;-79
2022/06/25 03:11:04;;;;;;;7.97;7.57;;;15.00;99.90;;;;;;5048303;28;20341;-79
2022/06/25 03:13:34;;;;;;;8.87;8.47;;;14.90;99.90;;;;;;5044556;28;20202;-79
2022/06/25 03:16:00;;;;;;;9.17;8.47;;;14.90;99.90;;;;;;5038377;28;20211;-79
2022/06/25 03:18:26;;;;;;;6.97;6.57;;;14.90;99.90;;;;;;5039507;28;20278;-79
2022/06/25 03:20:52;;;;;;;7.70;6.90;;;14.80;99.90;;;;;;5038045;28;20217;-79
2022/06/25 03:23:19;;;;;;;6.43;6.13;;;14.80;99.90;;;;;;5035676;28;20187;-79
2022/06/25 03:25:45;;;;;;;10.23;9.47;;;14.70;99.90;;;;;;5035647;28;20199;-78
2022/06/25 03:28:11;;;;;;;11.00;9.97;;;14.70;99.90;;;;;;5035066;28;20667;-79
2022/06/25 03:30:37;;;;;;;11.00;10.40;;;14.70;99.90;;;;;;5037212;28;20183;-78
2022/06/25 03:33:03;;;;;;;8.90;8.30;;;14.70;99.90;;;;;;5035711;28;20191;-78
2022/06/25 03:35:30;;;;;;;7.53;7.03;;;14.70;99.90;;;;;;5034705;28;20199;-79
2022/06/25 03:37:56;;;;;;;11.13;10.43;;;14.70;99.90;;;;;;5034654;28;20178;-79
2022/06/25 03:40:22;;;;;;;10.77;10.20;;;14.70;99.90;;;;;;5036447;28;20179;-79
2022/06/25 03:42:49;;;;;;;14.17;13.10;;;14.70;99.90;;;;;;5034951;28;20647;-79
2022/06/25 03:45:15;;;;;;;9.00;8.33;;;14.70;99.90;;;;;;5033865;28;20258;-77
2022/06/25 03:47:41;;;;;;;6.27;5.70;;;14.70;99.90;;;;;;5031359;28;20248;-77
2022/06/25 03:50:08;;;;;;;6.20;5.73;;;14.60;99.90;;;;;;5031807;28;20184;-78
2022/06/25 03:52:34;;;;;;;7.70;6.10;;;14.60;99.90;;;;;;5031718;28;20297;-77
2022/06/25 03:55:00;;;;;;;10.43;6.10;;;14.60;99.90;;;;;;5032632;28;20270;-78
2022/06/25 03:57:26;;;;;;;6.33;5.80;;;14.60;99.90;;;;;;5031519;28;20305;-78
2022/06/25 03:59:52;;;;;;;7.20;6.87;;;14.60;99.90;;;;;;5032952;28;20175;-78
2022/06/25 04:02:18;;;;;;;8.30;7.70;;;14.50;99.90;;;;;;5032305;28;20204;-79
2022/06/25 04:04:44;;;;;;;7.33;6.83;;;14.60;99.90;;;;;;5032747;28;20186;-78
2022/06/25 04:07:10;;;;;;;7.37;6.87;;;14.50;99.90;;;;;;5030719;28;20234;-78
2022/06/25 04:09:36;;;;;;;6.93;6.37;;;14.50;99.90;;;;;;5031290;28;20218;-78
2022/06/25 04:12:02;;;;;;;8.40;6.03;;;14.50;99.90;;;;;;5031063;28;20237;-78
2022/06/25 04:14:29;;;;;;;9.27;6.70;;;14.50;99.90;;;;;;5032571;28;20201;-78
2022/06/25 04:16:56;;;;;;;7.30;6.90;;;14.60;99.90;;;;;;5030543;28;20574;-78
2022/06/25 04:19:22;;;;;;;10.00;9.40;;;14.70;99.90;;;;;;5031049;28;20726;-77
2022/06/25 04:21:51;;;;;;;9.23;8.83;;;14.70;99.90;;;;;;5032156;28;20182;-77
2022/06/25 04:24:17;;;;;;;9.80;9.03;;;14.70;99.90;;;;;;5033326;28;20217;-78
2022/06/25 04:26:43;;;;;;;9.43;8.93;;;14.80;99.90;;;;;;5035114;28;20688;-78
2022/06/25 04:29:09;;;;;;;11.93;10.87;;;14.90;99.90;;;;;;5033209;28;20194;-78
2022/06/25 04:31:37;;;;;;;9.87;9.37;;;15.00;99.90;;;;;;5055530;28;20249;-78
2022/06/25 04:34:04;;;;;;;9.93;9.00;;;15.10;99.90;;;;;;5051002;28;20187;-77
2022/06/25 04:36:30;;;;;;;9.03;8.20;;;15.20;99.90;;;;;;5032648;28;20203;-76
2022/06/25 04:38:56;;;;;;;8.37;7.73;;;15.30;99.90;;;;;;5035048;28;20176;-78
2022/06/25 04:41:23;;;;;;;7.20;6.80;;;15.40;99.90;;;;;;5033530;28;20422;-78
2022/06/25 04:43:49;;;;;;;5.00;4.70;;;15.50;99.90;;;;;;5033826;28;20179;-78
2022/06/25 04:46:15;;;;;;;5.50;5.20;;;15.60;99.90;;;;;;5031814;28;20249;-78
2022/06/25 04:48:41;;;;;;;9.47;9.00;;;15.70;99.90;;;;;;5030263;28;20171;-78
2022/06/25 04:51:07;;;;;;;58.30;55.13;;;15.80;99.90;;;;;;5032210;28;20318;-78
2022/06/25 04:53:33;;;;;;;100.70;95.73;;;15.80;99.90;;;;;;5030920;28;20183;-78
2022/06/25 04:55:59;;;;;;;71.90;68.23;;;15.90;99.90;;;;;;5046991;22;20309;-75
2022/06/25 04:58:24;;;;;;;33.57;31.47;;;16.00;99.90;;;;;;5010961;28;20176;-75
2022/06/25 05:00:50;;;;;;;7.00;6.50;;;16.10;99.90;;;;;;5011935;28;20323;-74
2022/06/25 05:03:17;;;;;;;16.73;15.70;;;16.30;99.90;;;;;;5011810;28;20178;-74
2022/06/25 05:05:44;;;;;;;43.93;41.73;;;16.50;99.90;;;;;;5015380;28;20597;-73
2022/06/25 05:08:09;;;;;;;23.00;21.57;;;16.80;99.90;;;;;;5030500;28;20184;-75
2022/06/25 05:10:36;;;;;;;60.23;57.30;;;17.20;99.90;;;;;;5031375;28;20183;-75
2022/06/25 05:13:14;;;;;;;32.43;30.70;;;17.70;99.90;;;;;;5030560;28;20341;-74
2022/06/25 05:15:41;;;;;;;8.47;8.00;;;18.30;99.90;;;;;;5031805;28;20243;-75
2022/06/25 05:18:11;;;;;;;19.87;18.97;;;19.00;99.90;;;;;;5029812;28;20175;-75
2022/06/25 05:20:42;;;;;;;43.73;41.50;;;19.60;99.90;;;;;;5031154;28;20186;-75
2022/06/25 05:23:09;;;;;;;110.97;105.60;;;20.30;99.90;;;;;;5029943;28;20206;-75
2022/06/25 05:25:35;;;;;;;80.77;76.60;;;20.80;99.90;;;;;;5030912;28;20262;-74
2022/06/25 05:28:02;;;;;;;88.70;84.53;;;21.30;99.90;;;;;;5030222;28;20186;-75
2022/06/25 05:30:28;;;;;;;55.97;53.30;;;21.70;99.90;;;;;;5029956;28;20179;-74
2022/06/25 05:32:54;;;;;;;10.32;9.73;;;22.00;99.90;;;;;;5030999;28;20311;-75
2022/06/25 05:35:20;;;;;;;5.80;5.55;;;22.30;99.90;;;;;;5031586;28;20258;-75
2022/06/25 05:37:46;;;;;;;5.55;5.20;;;22.40;99.90;;;;;;5030187;28;20186;-75
2022/06/25 05:40:12;;;;;;;5.57;5.37;;;21.80;99.90;;;;;;5031207;28;20193;-74
2022/06/25 05:42:38;;;;;;;9.43;9.03;;;21.20;99.90;;;;;;5031141;28;20191;-74
2022/06/25 05:45:05;;;;;;;4.37;3.90;;;20.60;99.90;;;;;;5030864;28;20554;-74
2022/06/25 05:47:30;;;;;;;4.00;3.70;;;20.20;99.90;;;;;;5029814;28;20211;-74
2022/06/25 05:49:56;;;;;;;10.53;9.93;;;19.90;99.90;;;;;;5031049;28;20193;-75
2022/06/25 05:52:22;;;;;;;33.03;31.53;;;19.70;99.90;;;;;;5030629;28;20695;-73
2022/06/25 05:54:49;;;;;;;18.03;17.13;;;19.70;99.90;;;;;;5029646;28;20237;-74
2022/06/25 05:57:15;;;;;;;17.33;16.53;;;19.80;99.90;;;;;;5029938;28;20210;-74
2022/06/25 05:59:41;;;;;;;36.80;35.13;;;20.20;99.90;;;;;;5033200;28;20663;-74
2022/06/25 06:02:07;;;;;;;7.60;6.80;;;20.80;99.90;;;;;;5033611;28;20191;-73
2022/06/25 06:04:33;;;;;;;7.67;7.07;;;21.20;99.90;;;;;;5033674;28;20182;-76
2022/06/25 06:07:00;;;;;;;11.32;10.82;;;21.70;99.90;;;;;;5033765;28;20213;-76
2022/06/25 06:09:31;;;;;;;5.63;5.40;;;22.50;99.90;;;;;;5033528;28;20659;-74
2022/06/25 06:11:58;;;;;;;15.95;15.05;;;23.20;99.90;;;;;;5033491;28;20272;-74
2022/06/25 06:14:23;;;;;;;13.63;12.93;;;23.50;99.90;;;;;;5034524;28;20179;-74
2022/06/25 06:16:49;;;;;;;15.70;15.00;;;23.90;99.90;;;;;;5033571;28;20737;-75
2022/06/25 06:19:15;;;;;;;34.65;33.03;;;24.30;99.90;;;;;;5034315;28;20180;-74
2022/06/25 06:21:41;;;;;;;33.65;32.13;;;24.40;99.90;;;;;;5034312;28;20190;-74
2022/06/25 06:24:07;;;;;;;17.52;16.75;;;24.00;99.90;;;;;;5034185;28;20607;-75
2022/06/25 06:26:34;;;;;;;33.70;32.05;;;23.50;99.90;;;;;;5033114;28;20202;-75
2022/06/25 06:29:00;;;;;;;19.77;18.77;;;23.60;99.90;;;;;;5033144;28;20183;-75
2022/06/25 06:31:26;;;;;;;11.85;11.23;;;23.30;99.90;;;;;;5032859;28;20638;-75
2022/06/25 06:33:51;;;;;;;25.58;24.27;;;23.20;99.90;;;;;;5034244;28;20171;-75
2022/06/25 06:36:17;;;;;;;14.75;14.07;;;23.60;99.90;;;;;;5034271;28;20217;-76
2022/06/25 06:38:43;;;;;;;72.25;68.60;;;23.30;99.90;;;;;;5033149;28;20262;-76
2022/06/25 06:41:09;;;;;;;78.65;74.72;;;23.50;99.90;;;;;;5034026;28;20643;-76
2022/06/25 06:43:36;;;;;;;82.00;77.82;;;23.80;99.90;;;;;;5034258;28;20189;-76
2022/06/25 06:46:02;;;;;;;117.47;111.45;;;24.00;99.90;;;;;;5033970;28;20290;-74
2022/06/25 06:48:28;;;;;;;42.63;40.67;;;24.70;99.90;;;;;;5033130;28;20214;-75
2022/06/25 06:50:54;;;;;;;12.85;12.15;;;25.30;99.90;;;;;;5032716;28;20619;-75
2022/06/25 06:53:21;;;;;;;8.98;8.57;;;25.30;99.90;;;;;;5034206;28;20701;-75
2022/06/25 06:55:47;;;;;;;8.25;7.80;;;25.50;99.90;;;;;;5036877;28;20584;-75
2022/06/25 06:58:13;;;;;;;10.23;9.70;;;25.90;99.90;;;;;;5034154;28;20574;-75
2022/06/25 07:00:39;;;;;;;26.60;25.33;;;26.00;99.90;;;;;;5034442;28;20207;-74
2022/06/25 07:03:05;;;;;;;19.38;18.35;;;26.00;99.90;;;;;;5035688;28;20183;-75
2022/06/25 07:05:31;;;;;;;9.60;9.20;;;26.20;99.90;;;;;;5033548;28;20207;-74
2022/06/25 07:07:57;;;;;;;6.70;6.30;;;26.50;99.90;;;;;;5031480;28;20183;-76
2022/06/25 07:10:23;;;;;;;4.47;4.28;;;26.70;99.90;;;;;;5031475;28;20274;-74
2022/06/25 07:12:49;;;;;;;4.13;3.72;;;27.00;99.90;;;;;;5033530;28;20214;-76
2022/06/25 07:15:15;;;;;;;3.65;3.45;;;27.00;99.90;;;;;;5033598;28;20283;-75
2022/06/25 07:17:41;;;;;;;3.45;3.03;;;27.20;99.90;;;;;;5032653;28;20314;-75
2022/06/25 07:20:07;;;;;;;3.22;3.03;;;27.40;99.90;;;;;;5033320;28;20182;-76
2022/06/25 07:22:33;;;;;;;3.72;3.47;;;27.70;99.90;;;;;;5033190;28;20262;-75
2022/06/25 07:24:59;;;;;;;3.58;3.38;;;28.00;99.90;;;;;;5032230;28;20321;-77
2022/06/25 07:27:25;;;;;;;3.50;3.40;;;28.10;99.90;;;;;;5031234;28;20218;-74
2022/06/25 07:29:50;;;;;;;4.57;4.38;;;28.10;99.90;;;;;;5032555;28;20187;-76
2022/06/25 07:32:16;;;;;;;5.03;4.78;;;28.10;99.90;;;;;;5033614;28;20211;-77
2022/06/25 07:34:42;;;;;;;6.00;5.65;;;28.10;99.90;;;;;;5032001;28;20183;-75
2022/06/25 07:37:08;;;;;;;4.47;4.18;;;28.10;99.90;;;;;;5032678;28;20203;-76
2022/06/25 07:39:34;;;;;;;4.68;4.20;;;28.30;99.90;;;;;;5033020;28;20225;-76
2022/06/25 07:42:00;;;;;;;5.30;5.03;;;28.30;99.90;;;;;;5031591;28;20183;-76
2022/06/25 07:44:25;;;;;;;4.95;4.57;;;28.00;99.90;;;;;;5032829;28;20222;-76
2022/06/25 07:46:51;;;;;;;5.15;3.97;;;28.10;99.90;;;;;;5031926;28;20205;-77
2022/06/25 07:49:17;;;;;;;4.25;4.05;;;28.20;99.90;;;;;;5031432;28;20648;-76
2022/06/25 07:52:00;;;;;;;3.67;3.47;;;28.50;99.70;;;;;;5033065;28;20667;-76
2022/06/25 07:54:29;;;;;;;6.95;6.57;;;27.80;99.30;;;;;;5033294;28;20284;-76
2022/06/25 07:56:56;;;;;;;5.25;4.93;;;27.30;99.90;;;;;;5032740;28;20766;-76
2022/06/25 07:59:22;;;;;;;7.13;6.47;;;27.50;99.20;;;;;;5031489;28;20183;-76
2022/06/25 08:01:48;;;;;;;5.85;5.65;;;27.40;99.90;;;;;;5032747;28;20183;-76
2022/06/25 08:04:14;;;;;;;5.22;5.03;;;27.70;99.90;;;;;;5032488;28;20190;-75
2022/06/25 08:06:41;;;;;;;5.63;5.32;;;27.80;99.40;;;;;;5031123;28;20230;-74
2022/06/25 08:09:08;;;;;;;5.38;5.15;;;28.00;99.80;;;;;;5030728;28;20198;-76
2022/06/25 08:11:35;;;;;;;6.20;5.90;;;27.70;98.60;;;;;;5031154;28;20202;-76
2022/06/25 08:14:01;;;;;;;6.40;6.15;;;27.50;99.40;;;;;;5031118;28;20186;-76
2022/06/25 08:16:27;;;;;;;6.30;5.70;;;27.80;99.30;;;;;;5032191;28;20253;-76
2022/06/25 08:18:54;;;;;;;5.60;4.03;;;28.20;99.30;;;;;;5031301;28;20178;-76
2022/06/25 08:21:20;;;;;;;6.43;6.00;;;28.50;99.90;;;;;;5032020;28;20184;-76
2022/06/25 08:23:47;;;;;;;5.93;5.53;;;29.40;99.60;;;;;;5033401;28;20682;-75
2022/06/25 08:26:15;;;;;;;4.90;3.75;;;30.10;99.70;;;;;;5032596;28;20209;-75
2022/06/25 08:28:42;;;;;;;4.75;4.38;;;30.30;94.90;;;;;;5030272;28;20190;-76
2022/06/25 08:31:08;;;;;;;4.72;4.32;;;30.00;96.50;;;;;;5030796;28;20209;-76
2022/06/25 08:33:33;;;;;;;4.60;4.22;;;29.90;95.80;;;;;;5031956;28;20183;-76
2022/06/25 08:35:59;;;;;;;4.43;4.22;;;29.80;96.20;;;;;;5032062;28;20252;-75
2022/06/25 08:38:25;;;;;;;6.72;6.43;;;29.30;97.60;;;;;;5031000;28;20183;-76
2022/06/25 08:40:58;;;;;;;7.80;7.07;;;29.30;97.20;;;;;;5031832;28;20175;-76
2022/06/25 08:43:24;;;;;;;5.07;4.78;;;29.60;97.00;;;;;;5031654;28;20232;-76
2022/06/25 08:45:50;;;;;;;5.53;5.13;;;29.80;96.80;;;;;;5032121;28;20195;-76
2022/06/25 08:48:21;;;;;;;5.22;4.95;;;29.90;95.40;;;;;;5031907;28;20183;-76
2022/06/25 08:50:49;;;;;;;6.13;4.90;;;29.90;96.00;;;;;;5032211;28;20179;-75
2022/06/25 08:53:15;;;;;;;7.63;7.00;;;29.60;95.90;;;;;;5031521;28;20202;-75
2022/06/25 08:55:43;;;;;;;4.40;4.20;;;29.70;96.00;;;;;;5030047;28;20762;-75
2022/06/25 08:58:09;;;;;;;6.72;6.22;;;29.70;95.00;;;;;;5030597;28;20179;-75
2022/06/25 09:00:38;;;;;;;4.65;4.35;;;29.80;95.10;;;;;;5030294;28;20183;-75
2022/06/25 09:03:04;;;;;;;6.25;5.40;;;29.20;95.00;;;;;;5030642;28;20618;-76
2022/06/25 09:05:32;;;;;;;6.05;5.65;;;28.80;95.80;;;;;;5030370;28;20198;-76
2022/06/25 09:08:00;;;;;;;4.82;4.53;;;29.00;95.80;;;;;;5030811;28;20187;-75
2022/06/25 09:10:27;;;;;;;6.75;6.15;;;29.30;95.60;;;;;;5030265;28;20183;-75
2022/06/25 09:12:55;;;;;;;3.95;3.65;;;29.70;93.40;;;;;;5030283;28;20547;-75
2022/06/25 09:15:24;;;;;;;4.82;4.43;;;29.80;91.10;;;;;;5031474;28;20179;-76
2022/06/25 09:17:51;;;;;;;4.68;4.45;;;29.80;93.10;;;;;;5030662;28;20236;-76
2022/06/25 09:20:18;;;;;;;4.97;4.70;;;29.80;92.90;;;;;;5031117;28;20179;-75
2022/06/25 09:23:13;;;;;;;7.05;6.50;;;29.20;92.90;;;;;;5031100;28;20175;-75
2022/06/25 09:25:41;;;;;;;4.85;4.55;;;27.80;94.50;;;;;;5017047;28;20687;-76
2022/06/25 09:28:07;;;;;;;9.05;8.63;;;27.20;96.40;;;;;;5028972;28;20225;-75
2022/06/25 09:30:33;;;;;;;26.58;25.30;;;26.90;95.60;;;;;;5031115;28;20191;-76
2022/06/25 09:33:01;;;;;;;13.88;13.18;;;26.70;96.10;;;;;;5029185;28;20287;-76
2022/06/25 09:35:44;;;;;;;15.77;15.07;;;26.90;96.50;;;;;;5029475;28;20194;-75
2022/06/25 09:38:14;;;;;;;9.75;9.05;;;27.90;94.40;;;;;;5028950;28;20182;-75
2022/06/25 09:40:47;;;;;;;6.47;6.18;;;28.80;93.50;;;;;;5031734;28;20239;-76
2022/06/25 09:43:15;;;;;;;7.97;7.57;;;29.80;92.50;;;;;;5033084;28;20187;-76
2022/06/25 09:45:47;;;;;;;6.10;5.80;;;30.00;90.80;;;;;;5029906;28;20222;-75
2022/06/25 09:48:27;;;;;;;4.05;3.78;;;30.40;90.50;;;;;;5033847;28;20549;-75
2022/06/25 09:51:13;;;;;;;3.88;3.75;;;30.20;88.20;;;;;;5031206;28;20659;-74
2022/06/25 09:53:52;;;;;;;7.10;6.63;;;31.00;87.60;;;;;;5031036;28;20281;-75
2022/06/25 09:56:23;;;;;;;24.02;22.90;;;31.20;85.40;;;;;;5029509;28;20214;-76
2022/06/25 09:58:49;;;;;;;23.60;22.45;;;31.50;84.00;;;;;;5029969;28;20183;-76
2022/06/25 10:01:18;;;;;;;33.38;31.77;;;31.60;83.60;;;;;;5029600;28;20179;-75
2022/06/25 10:03:45;;;;;;;23.25;22.17;;;31.30;84.20;;;;;;5030689;28;20199;-76
2022/06/25 10:06:16;;;;;;;32.55;31.00;;;31.40;84.00;;;;;;5030708;28;20205;-75
2022/06/25 10:08:54;;;;;;;30.67;29.05;;;31.10;84.00;;;;;;5029626;28;20190;-76
2022/06/25 10:11:23;;;;;;;30.17;28.58;;;31.10;86.10;;;;;;5029411;28;20584;-76
2022/06/25 10:13:50;;;;;;;26.40;25.10;;;31.10;85.70;;;;;;5030558;28;20202;-76
2022/06/25 10:16:21;;;;;;;26.67;25.38;;;31.30;83.80;;;;;;5029500;28;20202;-76
2022/06/25 10:18:48;;;;;;;30.70;29.23;;;31.80;81.20;;;;;;5028849;28;20193;-75
2022/06/25 10:21:14;;;;;;;19.02;18.13;;;31.90;78.20;;;;;;5030603;28;20186;-75
2022/06/25 10:23:41;;;;;;;38.95;37.13;;;30.60;80.10;;;;;;5030841;28;20274;-75
2022/06/25 10:26:08;;;;;;;37.22;35.28;;;30.00;82.40;;;;;;5030543;28;20195;-76
2022/06/25 10:28:37;;;;;;;32.35;30.85;;;29.80;81.80;;;;;;5029551;28;20187;-76
2022/06/25 10:31:11;;;;;;;30.17;28.65;;;30.20;80.60;;;;;;5029243;28;20586;-76
2022/06/25 10:33:56;;;;;;;21.35;20.23;;;30.90;78.50;;;;;;5029268;28;20175;-76
2022/06/25 10:36:58;;;;;;;19.50;18.60;;;31.50;79.10;;;;;;5029299;28;20199;-76
2022/06/25 10:39:27;;;;;;;25.17;23.98;;;31.50;77.30;;;;;;5018704;28;20217;-76
2022/06/25 10:45:04;;;;;;;29.27;27.83;;;31.40;76.10;;;;;;5031615;28;20182;-76
2022/06/25 10:47:51;;;;;;;48.42;46.10;;;32.40;73.50;;;;;;5031966;28;20210;-76
2022/06/25 10:50:23;;;;;;;45.63;43.42;;;33.20;73.20;;;;;;5032827;28;20194;-74
2022/06/25 10:53:01;;;;;;;65.03;61.95;;;32.80;70.40;;;;;;5032921;28;20218;-76
2022/06/25 10:55:28;;;;;;;50.05;47.67;;;32.30;71.20;;;;;;5034049;28;20575;-75
2022/06/25 10:58:23;;;;;;;53.00;50.38;;;32.70;69.90;;;;;;5045064;22;20661;-79
2022/06/25 11:00:55;;;;;;;42.75;40.65;;;32.90;68.20;;;;;;5021737;28;20274;-78
2022/06/25 11:03:42;;;;;;;35.72;33.97;;;32.20;68.80;;;;;;5021523;28;20663;-77
2022/06/25 11:06:35;;;;;;;34.60;32.53;;;32.30;68.80;;;;;;5017008;28;20202;-77
2022/06/25 11:09:14;;;;;;;29.23;27.80;;;33.00;67.30;;;;;;5047216;28;20201;-78
2022/06/25 11:11:42;;;;;;;58.03;55.08;;;32.90;67.30;;;;;;5042573;28;20242;-76
2022/06/25 11:14:17;;;;;;;59.75;56.80;;;32.80;71.60;;;;;;5032473;28;20183;-76
2022/06/25 11:16:43;;;;;;;73.15;69.40;;;33.20;69.40;;;;;;5031702;28;20202;-77
2022/06/25 11:19:09;;;;;;;44.60;42.50;;;33.40;70.40;;;;;;5032971;28;20670;-76
2022/06/25 11:21:38;;;;;;;62.30;59.33;;;33.90;64.10;;;;;;5033714;28;20183;-76
2022/06/25 11:24:19;;;;;;;31.55;30.05;;;33.70;62.40;;;;;;5032344;28;20187;-77
2022/06/25 11:29:41;;;;;;;32.33;30.83;;;31.40;64.60;;;;;;5033187;28;20183;-77
2022/06/25 11:32:08;;;;;;;29.60;28.13;;;31.80;66.60;;;;;;5033426;28;20742;-77
2022/06/25 11:34:34;;;;;;;20.70;19.73;;;32.90;64.90;;;;;;5032068;28;20279;-77
2022/06/25 11:37:09;;;;;;;33.42;31.48;;;33.20;62.90;;;;;;5031120;28;20213;-77
2022/06/25 11:39:36;;;;;;;33.08;31.25;;;33.30;61.10;;;;;;5031613;28;20182;-77
2022/06/25 11:42:04;;;;;;;37.53;35.72;;;33.40;60.50;;;;;;5031853;28;20210;-77
2022/06/25 11:44:46;;;;;;;43.30;41.15;;;33.20;59.80;;;;;;5031722;28;20188;-77
2022/06/25 11:47:23;;;;;;;19.88;18.85;;;33.00;58.60;;;;;;5031181;28;20293;-79
2022/06/25 11:49:50;;;;;;;13.23;12.63;;;32.20;61.10;;;;;;5034247;28;20244;-79
2022/06/25 11:52:17;;;;;;;23.88;22.58;;;31.70;62.60;;;;;;5031459;28;20249;-77
2022/06/25 11:54:44;;;;;;;21.33;20.23;;;32.00;63.30;;;;;;5031982;28;20270;-78
2022/06/25 11:57:27;;;;;;;12.90;12.20;;;32.40;63.00;;;;;;5032967;28;20687;-79
2022/06/25 11:59:55;;;;;;;13.43;12.73;;;32.60;60.70;;;;;;5036633;28;20183;-78
2022/06/25 12:02:22;;;;;;;20.88;19.88;;;32.80;60.50;;;;;;5031615;28;20179;-76
2022/06/25 12:04:47;;;;;;;16.40;15.60;;;32.70;60.50;;;;;;5034080;28;20190;-77
2022/06/25 12:07:25;;;;;;;23.77;22.55;;;32.90;58.60;;;;;;5031743;28;20694;-77
2022/06/25 12:09:53;;;;;;;126.13;119.95;;;33.20;60.50;;;;;;5032810;28;20182;-77
2022/06/25 12:12:21;;;;;;;151.23;143.95;;;33.80;55.80;;;;;;5032707;28;20210;-77
2022/06/25 12:14:48;;;;;;;152.60;145.32;;;33.60;54.50;;;;;;5033105;28;20374;-77
2022/06/25 12:17:15;;;;;;;151.50;144.15;;;33.70;54.60;;;;;;5031315;28;20233;-77
2022/06/25 12:19:45;;;;;;;131.30;125.05;;;33.80;54.60;;;;;;5031635;28;20179;-79
2022/06/25 12:22:41;;;;;;;160.77;153.18;;;34.00;57.30;;;;;;5031311;28;20183;-77
2022/06/25 12:25:09;;;;;;;132.15;125.82;;;33.70;55.60;;;;;;5030250;28;20244;-77
2022/06/25 12:27:48;;;;;;;184.93;176.07;;;33.70;56.40;;;;;;5030109;28;20199;-77
2022/06/25 12:30:41;;;;;;;229.90;218.80;;;34.60;55.40;;;;;;5030998;28;20219;-77
2022/06/25 12:33:14;;;;;;;217.48;207.02;;;35.10;55.50;;;;;;5029133;28;20362;-76
2022/06/25 12:35:41;;;;;;;223.73;212.77;;;35.50;53.70;;;;;;5032500;28;20181;-77
2022/06/25 12:38:11;;;;;;;216.23;205.82;;;35.70;53.00;;;;;;5030786;28;20213;-77
2022/06/25 12:40:39;;;;;;;158.35;150.77;;;35.90;51.90;;;;;;5030937;28;20571;-77
2022/06/25 12:43:06;;;;;;;114.60;109.07;;;35.00;52.00;;;;;;5032251;28;20175;-77
2022/06/25 12:45:36;;;;;;;108.75;103.65;;;35.10;50.60;;;;;;5048498;28;20187;-77
2022/06/25 12:48:04;;;;;;;115.88;110.43;;;35.20;50.30;;;;;;5034944;28;20211;-77
2022/06/25 12:50:32;;;;;;;88.57;84.45;;;35.30;50.30;;;;;;5031101;28;20178;-78
2022/06/25 12:53:11;;;;;;;66.90;63.72;;;35.50;49.40;;;;;;5032318;28;20211;-77